createdAt,value
2016-12-16T00:00:22.849Z,0
2016-12-16T00:01:22.817Z,0
2016-12-16T00:02:22.805Z,0
2016-12-16T00:03:22.787Z,0
2016-12-16T00:04:22.771Z,0
2016-12-16T00:05:22.753Z,0
2016-12-16T00:06:22.733Z,0
2016-12-16T00:07:22.717Z,0
2016-12-16T00:08:22.699Z,0
2016-12-16T00:09:22.719Z,0
2016-12-16T00:10:22.670Z,0
2016-12-16T00:11:22.648Z,0
2016-12-16T00:12:22.633Z,0
2016-12-16T00:13:22.614Z,0
2016-12-16T00:14:22.594Z,0
2016-12-16T00:15:22.586Z,0
2016-12-16T00:16:22.561Z,0
2016-12-16T00:17:22.541Z,0
2016-12-16T00:18:22.555Z,0
2016-12-16T00:19:22.513Z,0
2016-12-16T00:20:22.494Z,0
2016-12-16T00:21:22.477Z,0
2016-12-16T00:22:22.463Z,0
2016-12-16T00:23:22.442Z,0
2016-12-16T00:24:22.428Z,0
2016-12-16T00:25:22.446Z,0
2016-12-16T00:26:22.392Z,0
2016-12-16T00:27:22.378Z,0
2016-12-16T00:28:22.383Z,0
2016-12-16T00:29:22.339Z,0
2016-12-16T00:30:22.320Z,0
2016-12-16T00:31:22.305Z,0
2016-12-16T00:32:22.287Z,0
2016-12-16T00:33:22.271Z,0
2016-12-16T00:34:22.258Z,0
2016-12-16T00:35:22.237Z,0
2016-12-16T00:36:22.222Z,0
2016-12-16T00:37:22.204Z,0
2016-12-16T00:38:22.188Z,0
2016-12-16T00:39:22.171Z,0
2016-12-16T00:40:22.156Z,0
2016-12-16T00:41:22.135Z,0
2016-12-16T00:42:22.121Z,0
2016-12-16T00:43:22.096Z,0
2016-12-16T00:44:22.083Z,0
2016-12-16T00:45:22.065Z,0
2016-12-16T00:46:22.048Z,0
2016-12-16T00:47:22.034Z,0
2016-12-16T00:48:22.020Z,0
2016-12-16T00:49:21.999Z,0
2016-12-16T00:50:21.979Z,0
2016-12-16T00:51:21.970Z,0
2016-12-16T00:52:21.950Z,0
2016-12-16T00:53:21.933Z,0
2016-12-16T00:54:21.913Z,0
2016-12-16T00:55:21.899Z,0
2016-12-16T00:56:21.882Z,0
2016-12-16T00:57:21.862Z,0
2016-12-16T00:58:21.846Z,0
2016-12-16T00:59:21.824Z,0
2016-12-16T01:00:21.811Z,0
2016-12-16T01:01:21.792Z,0
2016-12-16T01:02:21.778Z,0
2016-12-16T01:03:36.674Z,0
2016-12-16T01:04:21.743Z,0
2016-12-16T01:05:21.725Z,0
2016-12-16T01:06:21.712Z,0
2016-12-16T01:07:21.694Z,0
2016-12-16T01:08:21.676Z,0
2016-12-16T01:09:21.661Z,0
2016-12-16T01:10:21.643Z,0
2016-12-16T01:11:21.621Z,0
2016-12-16T01:12:21.611Z,0
2016-12-16T01:13:21.591Z,0
2016-12-16T01:14:21.574Z,0
2016-12-16T01:15:21.591Z,0
2016-12-16T01:16:21.540Z,0
2016-12-16T01:17:21.520Z,0
2016-12-16T01:18:21.507Z,0
2016-12-16T01:19:21.491Z,0
2016-12-16T01:20:21.470Z,0
2016-12-16T01:21:21.454Z,0
2016-12-16T01:22:21.438Z,0
2016-12-16T01:23:21.420Z,0
2016-12-16T01:24:21.405Z,0
2016-12-16T01:25:21.387Z,0
2016-12-16T01:26:21.371Z,0
2016-12-16T01:27:21.354Z,0
2016-12-16T01:28:21.334Z,0
2016-12-16T01:29:21.321Z,0
2016-12-16T01:30:21.301Z,0
2016-12-16T01:31:21.287Z,0
2016-12-16T01:32:21.269Z,0
2016-12-16T01:33:21.460Z,0
2016-12-16T01:34:21.236Z,0
2016-12-16T01:35:21.222Z,0
2016-12-16T01:36:21.204Z,0
2016-12-16T01:37:21.183Z,0
2016-12-16T01:38:21.167Z,0
2016-12-16T01:39:21.145Z,0
2016-12-16T01:40:21.132Z,0
2016-12-16T01:41:21.113Z,0
2016-12-16T01:42:21.095Z,0
2016-12-16T01:43:21.084Z,0
2016-12-16T01:44:21.064Z,0
2016-12-16T01:45:21.042Z,0
2016-12-16T01:46:21.030Z,0
2016-12-16T01:47:21.012Z,0
2016-12-16T01:48:20.997Z,0
2016-12-16T01:49:20.978Z,0
2016-12-16T01:50:20.960Z,0
2016-12-16T01:51:20.950Z,0
2016-12-16T01:52:20.931Z,0
2016-12-16T01:53:20.917Z,0
2016-12-16T01:54:20.900Z,0
2016-12-16T01:55:20.882Z,0
2016-12-16T01:56:20.862Z,0
2016-12-16T01:57:20.843Z,0
2016-12-16T01:58:20.825Z,0
2016-12-16T01:59:20.811Z,0
2016-12-16T02:00:35.705Z,0
2016-12-16T02:01:20.984Z,0
2016-12-16T02:02:20.959Z,0
2016-12-16T02:03:20.741Z,0
2016-12-16T02:04:20.723Z,0
2016-12-16T02:05:20.703Z,0
2016-12-16T02:06:20.691Z,0
2016-12-16T02:07:20.679Z,0
2016-12-16T02:08:20.665Z,0
2016-12-16T02:09:20.650Z,0
2016-12-16T02:10:20.619Z,0
2016-12-16T02:11:20.608Z,0
2016-12-16T02:12:20.621Z,0
2016-12-16T02:13:20.577Z,0
2016-12-16T02:14:20.554Z,0
2016-12-16T02:15:20.539Z,0
2016-12-16T02:16:20.522Z,0
2016-12-16T02:17:20.507Z,0
2016-12-16T02:18:20.494Z,0
2016-12-16T02:19:20.471Z,0
2016-12-16T02:20:20.457Z,0
2016-12-16T02:21:20.436Z,0
2016-12-16T02:22:20.418Z,0
2016-12-16T02:23:20.403Z,0
2016-12-16T02:24:20.389Z,0
2016-12-16T02:25:20.365Z,0
2016-12-16T02:26:20.354Z,0
2016-12-16T02:27:20.333Z,0
2016-12-16T02:28:20.319Z,0
2016-12-16T02:29:20.297Z,0
2016-12-16T02:30:20.489Z,0
2016-12-16T02:31:20.472Z,0
2016-12-16T02:32:20.248Z,0
2016-12-16T02:33:20.234Z,0
2016-12-16T02:34:20.211Z,0
2016-12-16T02:35:20.200Z,0
2016-12-16T02:36:20.176Z,0
2016-12-16T02:37:20.169Z,0
2016-12-16T02:38:20.148Z,0
2016-12-16T02:39:20.129Z,0
2016-12-16T02:40:20.111Z,0
2016-12-16T02:41:20.098Z,0
2016-12-16T02:42:20.083Z,0
2016-12-16T02:43:20.058Z,0
2016-12-16T02:44:20.047Z,0
2016-12-16T02:45:20.029Z,0
2016-12-16T02:46:20.009Z,0
2016-12-16T02:47:19.993Z,0
2016-12-16T02:48:19.977Z,0
2016-12-16T02:49:19.961Z,0
2016-12-16T02:50:19.947Z,0
2016-12-16T02:51:19.924Z,0
2016-12-16T02:52:19.910Z,0
2016-12-16T02:53:19.892Z,0
2016-12-16T02:54:19.877Z,0
2016-12-16T02:55:19.860Z,0
2016-12-16T02:56:19.842Z,0
2016-12-16T02:57:19.823Z,0
2016-12-16T02:58:19.809Z,0
2016-12-16T02:59:19.791Z,0
2016-12-16T03:00:19.772Z,0
2016-12-16T03:01:19.754Z,0
2016-12-16T03:02:19.740Z,0
2016-12-16T03:03:19.720Z,0
2016-12-16T03:04:19.698Z,0
2016-12-16T03:05:19.688Z,0
2016-12-16T03:06:19.698Z,0
2016-12-16T03:07:19.652Z,0
2016-12-16T03:08:19.640Z,0
2016-12-16T03:09:19.619Z,0
2016-12-16T03:10:19.601Z,0
2016-12-16T03:11:19.588Z,0
2016-12-16T03:12:19.570Z,0
2016-12-16T03:13:19.557Z,0
2016-12-16T03:14:19.536Z,0
2016-12-16T03:15:19.517Z,0
2016-12-16T03:16:19.532Z,0
2016-12-16T03:17:19.493Z,0
2016-12-16T03:18:19.468Z,0
2016-12-16T03:19:19.446Z,0
2016-12-16T03:20:19.434Z,0
2016-12-16T03:21:19.414Z,0
2016-12-16T03:22:19.403Z,0
2016-12-16T03:23:19.382Z,0
2016-12-16T03:24:19.366Z,0
2016-12-16T03:25:19.351Z,0
2016-12-16T03:26:19.351Z,0
2016-12-16T03:27:19.518Z,0
2016-12-16T03:28:19.484Z,0
2016-12-16T03:29:19.283Z,0
2016-12-16T03:30:19.261Z,0
2016-12-16T03:31:19.253Z,0
2016-12-16T03:32:19.229Z,0
2016-12-16T03:33:19.214Z,0
2016-12-16T03:34:19.196Z,0
2016-12-16T03:35:19.180Z,0
2016-12-16T03:36:19.160Z,0
2016-12-16T03:37:19.174Z,0
2016-12-16T03:38:19.128Z,0
2016-12-16T03:39:19.113Z,0
2016-12-16T03:40:19.091Z,0
2016-12-16T03:41:19.075Z,0
2016-12-16T03:42:19.059Z,0
2016-12-16T03:43:19.044Z,0
2016-12-16T03:44:19.035Z,0
2016-12-16T03:45:19.003Z,0
2016-12-16T03:46:18.992Z,0
2016-12-16T03:47:18.979Z,0
2016-12-16T03:48:18.963Z,0
2016-12-16T03:49:18.941Z,0
2016-12-16T03:50:18.923Z,0
2016-12-16T03:51:18.909Z,0
2016-12-16T03:52:18.890Z,0
2016-12-16T03:53:18.876Z,0
2016-12-16T03:54:18.853Z,0
2016-12-16T03:55:18.848Z,0
2016-12-16T03:56:18.826Z,0
2016-12-16T03:57:18.810Z,0
2016-12-16T03:58:18.794Z,0
2016-12-16T03:59:18.775Z,0
2016-12-16T04:00:18.756Z,0
2016-12-16T04:01:18.737Z,0
2016-12-16T04:02:18.725Z,0
2016-12-16T04:03:18.705Z,0
2016-12-16T04:04:18.689Z,0
2016-12-16T04:05:18.673Z,0
2016-12-16T04:06:18.661Z,0
2016-12-16T04:07:18.637Z,0
2016-12-16T04:08:18.622Z,0
2016-12-16T04:09:18.605Z,0
2016-12-16T04:10:18.589Z,0
2016-12-16T04:11:18.576Z,0
2016-12-16T04:12:18.555Z,0
2016-12-16T04:13:18.537Z,0
2016-12-16T04:14:18.517Z,0
2016-12-16T04:15:18.508Z,0
2016-12-16T04:16:18.488Z,0
2016-12-16T04:17:18.471Z,0
2016-12-16T04:18:18.456Z,0
2016-12-16T04:19:18.436Z,0
2016-12-16T04:20:18.423Z,0
2016-12-16T04:21:18.401Z,0
2016-12-16T04:22:18.386Z,0
2016-12-16T04:23:18.369Z,0
2016-12-16T04:24:18.350Z,0
2016-12-16T04:25:18.331Z,0
2016-12-16T04:26:18.320Z,0
2016-12-16T04:27:18.305Z,0
2016-12-16T04:28:18.286Z,0
2016-12-16T04:29:18.267Z,0
2016-12-16T04:30:18.251Z,0
2016-12-16T04:31:18.232Z,0
2016-12-16T04:32:18.214Z,0
2016-12-16T04:33:18.207Z,0
2016-12-16T04:34:18.185Z,0
2016-12-16T04:35:18.164Z,0
2016-12-16T04:36:18.150Z,0
2016-12-16T04:37:18.134Z,0
2016-12-16T04:38:18.111Z,0
2016-12-16T04:39:18.103Z,0
2016-12-16T04:40:18.075Z,0
2016-12-16T04:41:18.066Z,0
2016-12-16T04:42:18.053Z,0
2016-12-16T04:43:18.026Z,0
2016-12-16T04:44:18.016Z,0
2016-12-16T04:45:18.000Z,0
2016-12-16T04:46:17.989Z,0
2016-12-16T04:47:17.961Z,0
2016-12-16T04:48:17.948Z,0
2016-12-16T04:49:17.929Z,0
2016-12-16T04:50:17.913Z,0
2016-12-16T04:51:17.893Z,0
2016-12-16T04:52:17.877Z,0
2016-12-16T04:53:17.861Z,0
2016-12-16T04:54:17.842Z,0
2016-12-16T04:55:17.821Z,0
2016-12-16T04:56:17.812Z,0
2016-12-16T04:57:17.791Z,0
2016-12-16T04:58:17.773Z,0
2016-12-16T04:59:17.760Z,0
2016-12-16T05:00:17.738Z,0
2016-12-16T05:01:17.724Z,0
2016-12-16T05:02:17.704Z,0
2016-12-16T05:03:17.691Z,0
2016-12-16T05:04:17.670Z,0
2016-12-16T05:05:17.957Z,0
2016-12-16T05:06:17.634Z,0
2016-12-16T05:07:17.621Z,0
2016-12-16T05:08:17.603Z,0
2016-12-16T05:09:17.593Z,0
2016-12-16T05:10:17.570Z,0
2016-12-16T05:11:17.553Z,0
2016-12-16T05:12:17.535Z,0
2016-12-16T05:13:17.515Z,0
2016-12-16T05:14:17.502Z,0
2016-12-16T05:15:17.484Z,0
2016-12-16T05:16:17.776Z,0
2016-12-16T05:17:17.463Z,0
2016-12-16T05:18:17.434Z,0
2016-12-16T05:19:17.413Z,0
2016-12-16T05:20:17.400Z,0
2016-12-16T05:21:17.380Z,0
2016-12-16T05:22:17.363Z,0
2016-12-16T05:23:17.347Z,0
2016-12-16T05:24:17.327Z,0
2016-12-16T05:25:17.313Z,0
2016-12-16T05:26:17.294Z,0
2016-12-16T05:27:17.274Z,0
2016-12-16T05:28:17.259Z,0
2016-12-16T05:29:17.245Z,0
2016-12-16T05:30:17.225Z,0
2016-12-16T05:31:17.508Z,0
2016-12-16T05:32:17.191Z,0
2016-12-16T05:33:17.175Z,0
2016-12-16T05:34:17.156Z,0
2016-12-16T05:35:17.140Z,0
2016-12-16T05:36:17.118Z,0
2016-12-16T05:37:17.104Z,0
2016-12-16T05:38:17.086Z,0
2016-12-16T05:39:17.067Z,0
2016-12-16T05:40:17.055Z,0
2016-12-16T05:41:17.036Z,0
2016-12-16T05:42:17.016Z,0
2016-12-16T05:43:16.998Z,0
2016-12-16T05:44:16.979Z,0
2016-12-16T05:45:16.967Z,0
2016-12-16T05:46:16.947Z,0
2016-12-16T05:47:16.929Z,0
2016-12-16T05:48:16.914Z,0
2016-12-16T05:49:16.894Z,0
2016-12-16T05:50:16.876Z,0
2016-12-16T05:51:16.863Z,0
2016-12-16T05:52:16.847Z,0
2016-12-16T05:53:16.824Z,0
2016-12-16T05:54:16.809Z,0
2016-12-16T05:55:16.791Z,0
2016-12-16T05:56:16.772Z,0
2016-12-16T05:57:16.753Z,0
2016-12-16T05:58:16.738Z,0
2016-12-16T05:59:16.722Z,0
2016-12-16T06:00:16.708Z,0
2016-12-16T06:01:16.693Z,0
2016-12-16T06:02:16.675Z,0
2016-12-16T06:03:16.662Z,0
2016-12-16T06:04:16.643Z,0
2016-12-16T06:05:16.617Z,0
2016-12-16T06:06:16.606Z,0
2016-12-16T06:07:16.583Z,0
2016-12-16T06:08:16.596Z,0
2016-12-16T06:09:16.546Z,0
2016-12-16T06:10:16.535Z,0
2016-12-16T06:11:16.512Z,0
2016-12-16T06:12:16.492Z,0
2016-12-16T06:13:16.483Z,0
2016-12-16T06:14:16.459Z,0
2016-12-16T06:15:16.441Z,4
2016-12-16T06:16:16.427Z,4
2016-12-16T06:17:16.411Z,0
2016-12-16T06:18:16.388Z,0
2016-12-16T06:19:16.371Z,4
2016-12-16T06:20:16.358Z,0
2016-12-16T06:21:16.341Z,4
2016-12-16T06:22:16.348Z,0
2016-12-16T06:23:16.311Z,4
2016-12-16T06:24:16.288Z,4
2016-12-16T06:25:16.263Z,8
2016-12-16T06:26:16.249Z,8
2016-12-16T06:27:16.231Z,8
2016-12-16T06:28:16.247Z,12
2016-12-16T06:29:16.193Z,12
2016-12-16T06:30:16.187Z,16
2016-12-16T06:31:16.163Z,20
2016-12-16T06:32:16.448Z,24
2016-12-16T06:33:16.130Z,28
2016-12-16T06:34:16.108Z,32
2016-12-16T06:35:16.091Z,36
2016-12-16T06:36:16.077Z,44
2016-12-16T06:37:16.054Z,56
2016-12-16T06:38:16.040Z,64
2016-12-16T06:39:16.025Z,76
2016-12-16T06:40:16.031Z,88
2016-12-16T06:41:15.984Z,100
2016-12-16T06:42:15.965Z,116
2016-12-16T06:43:15.952Z,132
2016-12-16T06:44:15.929Z,148
2016-12-16T06:45:15.914Z,168
2016-12-16T06:46:15.895Z,192
2016-12-16T06:47:15.881Z,216
2016-12-16T06:48:15.858Z,240
2016-12-16T06:49:15.845Z,268
2016-12-16T06:50:15.822Z,296
2016-12-16T06:51:15.810Z,332
2016-12-16T06:52:15.786Z,364
2016-12-16T06:53:15.772Z,404
2016-12-16T06:54:15.756Z,440
2016-12-16T06:55:15.738Z,480
2016-12-16T06:56:15.718Z,524
2016-12-16T06:57:15.699Z,564
2016-12-16T06:58:15.685Z,612
2016-12-16T06:59:15.664Z,668
2016-12-16T07:00:15.651Z,752
2016-12-16T07:01:15.936Z,856
2016-12-16T07:02:15.615Z,952
2016-12-16T07:03:15.597Z,1032
2016-12-16T07:04:15.582Z,1116
2016-12-16T07:05:15.569Z,1192
2016-12-16T07:06:15.547Z,1276
2016-12-16T07:07:15.525Z,1348
2016-12-16T07:08:15.514Z,1428
2016-12-16T07:09:15.800Z,1520
2016-12-16T07:10:15.479Z,1612
2016-12-16T07:11:15.461Z,1704
2016-12-16T07:12:15.445Z,1792
2016-12-16T07:13:15.423Z,1884
2016-12-16T07:14:15.412Z,1976
2016-12-16T07:15:15.391Z,2072
2016-12-16T07:16:15.373Z,2168
2016-12-16T07:17:15.354Z,2264
2016-12-16T07:18:15.339Z,2356
2016-12-16T07:19:15.322Z,2452
2016-12-16T07:20:15.317Z,2544
2016-12-16T07:21:15.297Z,2640
2016-12-16T07:22:15.269Z,2728
2016-12-16T07:23:15.258Z,2816
2016-12-16T07:24:15.238Z,2900
2016-12-16T07:25:15.225Z,2988
2016-12-16T07:26:15.207Z,3080
2016-12-16T07:27:15.191Z,3168
2016-12-16T07:28:15.174Z,3260
2016-12-16T07:29:15.469Z,3352
2016-12-16T07:30:15.139Z,3440
2016-12-16T07:31:15.125Z,3544
2016-12-16T07:32:15.105Z,3656
2016-12-16T07:33:15.085Z,3756
2016-12-16T07:34:15.122Z,3836
2016-12-16T07:35:15.057Z,3920
2016-12-16T07:36:15.040Z,4004
2016-12-16T07:37:15.026Z,4096
2016-12-16T07:38:15.008Z,4188
2016-12-16T07:39:14.987Z,4284
2016-12-16T07:40:14.983Z,4380
2016-12-16T07:41:14.959Z,4508
2016-12-16T07:42:14.942Z,4668
2016-12-16T07:43:14.924Z,4888
2016-12-16T07:44:14.912Z,5096
2016-12-16T07:45:14.891Z,5268
2016-12-16T07:46:14.875Z,5364
2016-12-16T07:47:14.862Z,5516
2016-12-16T07:48:14.846Z,5648
2016-12-16T07:49:14.832Z,5680
2016-12-16T07:50:14.810Z,5664
2016-12-16T07:51:14.796Z,5608
2016-12-16T07:52:14.794Z,5824
2016-12-16T07:53:14.766Z,6080
2016-12-16T07:54:15.058Z,6352
2016-12-16T07:55:14.746Z,6512
2016-12-16T07:56:14.723Z,6496
2016-12-16T07:57:14.703Z,6656
2016-12-16T07:58:14.686Z,6872
2016-12-16T07:59:14.676Z,7136
2016-12-16T08:00:14.657Z,7312
2016-12-16T08:01:14.641Z,7468
2016-12-16T08:02:14.630Z,7540
2016-12-16T08:03:14.613Z,7484
2016-12-16T08:04:14.596Z,7476
2016-12-16T08:05:14.579Z,7508
2016-12-16T08:06:14.569Z,7632
2016-12-16T08:07:14.551Z,8048
2016-12-16T08:08:14.535Z,8220
2016-12-16T08:09:14.525Z,8116
2016-12-16T08:10:14.506Z,7908
2016-12-16T08:11:14.492Z,8224
2016-12-16T08:12:14.474Z,8612
2016-12-16T08:13:14.461Z,8920
2016-12-16T08:14:14.445Z,9168
2016-12-16T08:15:14.437Z,9280
2016-12-16T08:16:14.418Z,9220
2016-12-16T08:17:14.402Z,9488
2016-12-16T08:18:14.388Z,9780
2016-12-16T08:19:14.370Z,10424
2016-12-16T08:20:14.358Z,11080
2016-12-16T08:21:14.345Z,11452
2016-12-16T08:22:14.327Z,11816
2016-12-16T08:23:14.311Z,11624
2016-12-16T08:24:14.299Z,11996
2016-12-16T08:25:14.282Z,12660
2016-12-16T08:26:14.268Z,13024
2016-12-16T08:27:14.250Z,13856
2016-12-16T08:28:14.238Z,14120
2016-12-16T08:29:14.221Z,13880
2016-12-16T08:30:14.206Z,13460
2016-12-16T08:31:14.196Z,12856
2016-12-16T08:32:14.184Z,12452
2016-12-16T08:33:14.163Z,12792
2016-12-16T08:34:14.146Z,13316
2016-12-16T08:35:14.131Z,13136
2016-12-16T08:36:14.125Z,13064
2016-12-16T08:37:14.101Z,13824
2016-12-16T08:38:14.087Z,14384
2016-12-16T08:39:14.068Z,14360
2016-12-16T08:40:14.062Z,14192
2016-12-16T08:41:14.040Z,14192
2016-12-16T08:42:14.035Z,14104
2016-12-16T08:43:14.011Z,13564
2016-12-16T08:44:14.004Z,13124
2016-12-16T08:45:14.020Z,13816
2016-12-16T08:46:13.973Z,14392
2016-12-16T08:47:14.268Z,15328
2016-12-16T08:48:13.946Z,16672
2016-12-16T08:49:13.934Z,16896
2016-12-16T08:50:13.913Z,16544
2016-12-16T08:51:13.909Z,16448
2016-12-16T08:52:13.888Z,16256
2016-12-16T08:53:13.875Z,16864
2016-12-16T08:54:13.863Z,17440
2016-12-16T08:55:13.851Z,18272
2016-12-16T08:56:13.836Z,19264
2016-12-16T08:57:13.821Z,19296
2016-12-16T08:58:13.807Z,19168
2016-12-16T08:59:13.794Z,19584
2016-12-16T09:00:13.983Z,19296
2016-12-16T09:01:13.772Z,19520
2016-12-16T09:02:13.758Z,19712
2016-12-16T09:03:13.739Z,19712
2016-12-16T09:04:13.731Z,21280
2016-12-16T09:05:13.715Z,21952
2016-12-16T09:06:13.706Z,21696
2016-12-16T09:07:13.694Z,22880
2016-12-16T09:08:13.681Z,23328
2016-12-16T09:09:13.663Z,23168
2016-12-16T09:10:13.654Z,23680
2016-12-16T09:11:13.955Z,23136
2016-12-16T09:12:13.628Z,20768
2016-12-16T09:13:13.640Z,21440
2016-12-16T09:14:13.611Z,24992
2016-12-16T09:15:13.594Z,25632
2016-12-16T09:16:13.579Z,26080
2016-12-16T09:17:13.560Z,24832
2016-12-16T09:18:13.556Z,21824
2016-12-16T09:19:13.534Z,21472
2016-12-16T09:20:13.521Z,20736
2016-12-16T09:21:13.516Z,19168
2016-12-16T09:22:13.493Z,17600
2016-12-16T09:23:13.482Z,16704
2016-12-16T09:24:13.474Z,17440
2016-12-16T09:25:13.457Z,19104
2016-12-16T09:26:13.444Z,22752
2016-12-16T09:27:13.463Z,25952
2016-12-16T09:28:13.419Z,28704
2016-12-16T09:29:13.405Z,29120
2016-12-16T09:30:13.392Z,27424
2016-12-16T09:31:13.381Z,27104
2016-12-16T09:32:13.369Z,27616
2016-12-16T09:33:13.358Z,26464
2016-12-16T09:34:13.342Z,25568
2016-12-16T09:35:13.331Z,26688
2016-12-16T09:36:13.319Z,26976
2016-12-16T09:37:13.298Z,27968
2016-12-16T09:38:13.287Z,27040
2016-12-16T09:39:13.280Z,25280
2016-12-16T09:40:13.270Z,24544
2016-12-16T09:41:13.265Z,24160
2016-12-16T09:42:13.246Z,26688
2016-12-16T09:43:13.224Z,28224
2016-12-16T09:44:13.212Z,29664
2016-12-16T09:45:13.201Z,31456
2016-12-16T09:46:13.188Z,30560
2016-12-16T09:47:13.179Z,30304
2016-12-16T09:48:13.165Z,31776
2016-12-16T09:49:13.153Z,33184
2016-12-16T09:50:13.141Z,35936
2016-12-16T09:51:13.130Z,35296
2016-12-16T09:52:13.139Z,31936
2016-12-16T09:53:13.101Z,29792
2016-12-16T09:54:13.086Z,30016
2016-12-16T09:55:13.072Z,34400
2016-12-16T09:56:13.060Z,37344
2016-12-16T09:57:13.052Z,31872
2016-12-16T09:58:13.035Z,27008
2016-12-16T09:59:13.326Z,23232
2016-12-16T10:00:13.033Z,21024
2016-12-16T10:01:12.997Z,20032
2016-12-16T10:02:12.983Z,21088
2016-12-16T10:03:12.972Z,21600
2016-12-16T10:04:12.963Z,21856
2016-12-16T10:05:12.944Z,23328
2016-12-16T10:06:12.933Z,23232
2016-12-16T10:07:12.920Z,21792
2016-12-16T10:08:12.907Z,22464
2016-12-16T10:09:12.902Z,24768
2016-12-16T10:10:12.885Z,25920
2016-12-16T10:11:12.919Z,27200
2016-12-16T10:12:12.859Z,27296
2016-12-16T10:13:12.845Z,29760
2016-12-16T10:14:12.834Z,32224
2016-12-16T10:15:12.824Z,31808
2016-12-16T10:16:12.805Z,30336
2016-12-16T10:17:12.796Z,30880
2016-12-16T10:18:12.778Z,33248
2016-12-16T10:19:12.770Z,32352
2016-12-16T10:20:12.754Z,31680
2016-12-16T10:21:12.743Z,31200
2016-12-16T10:22:12.733Z,30272
2016-12-16T10:23:12.715Z,30336
2016-12-16T10:24:12.736Z,31744
2016-12-16T10:25:12.695Z,32608
2016-12-16T10:26:12.694Z,31712
2016-12-16T10:27:12.669Z,31840
2016-12-16T10:28:12.668Z,33984
2016-12-16T10:29:12.644Z,35392
2016-12-16T10:30:12.634Z,36352
2016-12-16T10:31:12.620Z,36608
2016-12-16T10:32:12.618Z,37440
2016-12-16T10:33:12.594Z,38272
2016-12-16T10:34:12.580Z,38816
2016-12-16T10:35:12.572Z,37632
2016-12-16T10:36:12.560Z,40256
2016-12-16T10:37:12.545Z,45024
2016-12-16T10:38:12.537Z,43840
2016-12-16T10:39:12.524Z,38912
2016-12-16T10:40:12.539Z,37312
2016-12-16T10:41:12.497Z,38048
2016-12-16T10:42:12.492Z,40512
2016-12-16T10:43:12.477Z,44768
2016-12-16T10:44:12.474Z,41600
2016-12-16T10:45:12.451Z,38176
2016-12-16T10:46:12.446Z,37664
2016-12-16T10:47:12.427Z,32000
2016-12-16T10:48:12.415Z,28896
2016-12-16T10:49:12.408Z,32320
2016-12-16T10:50:12.398Z,34752
2016-12-16T10:51:12.412Z,32384
2016-12-16T10:52:12.371Z,32512
2016-12-16T10:53:12.363Z,33504
2016-12-16T10:54:12.351Z,34208
2016-12-16T10:55:12.336Z,33888
2016-12-16T10:56:12.330Z,32160
2016-12-16T10:57:12.366Z,32064
2016-12-16T10:58:12.307Z,31776
2016-12-16T10:59:12.301Z,31840
2016-12-16T11:00:12.277Z,32512
2016-12-16T11:01:12.271Z,31328
2016-12-16T11:02:12.261Z,29888
2016-12-16T11:03:12.301Z,31744
2016-12-16T11:04:12.234Z,34016
2016-12-16T11:05:12.226Z,32000
2016-12-16T11:06:12.210Z,29984
2016-12-16T11:07:12.250Z,29408
2016-12-16T11:08:12.188Z,28864
2016-12-16T11:09:12.180Z,28224
2016-12-16T11:10:12.169Z,27360
2016-12-16T11:11:12.157Z,31232
2016-12-16T11:12:12.145Z,30976
2016-12-16T11:13:12.133Z,32576
2016-12-16T11:14:12.123Z,33536
2016-12-16T11:15:12.108Z,33568
2016-12-16T11:16:12.100Z,32864
2016-12-16T11:17:12.081Z,34048
2016-12-16T11:18:12.073Z,37536
2016-12-16T11:19:12.063Z,40032
2016-12-16T11:20:12.052Z,41024
2016-12-16T11:21:12.041Z,40320
2016-12-16T11:22:12.025Z,41472
2016-12-16T11:23:12.012Z,41504
2016-12-16T11:24:11.998Z,33856
2016-12-16T11:25:11.989Z,28864
2016-12-16T11:26:11.974Z,37696
2016-12-16T11:27:11.967Z,45632
2016-12-16T11:28:11.954Z,47872
2016-12-16T11:29:11.941Z,46848
2016-12-16T11:30:11.928Z,41952
2016-12-16T11:31:11.919Z,39936
2016-12-16T11:32:11.902Z,41152
2016-12-16T11:33:11.889Z,42432
2016-12-16T11:34:11.879Z,45920
2016-12-16T11:35:11.867Z,44960
2016-12-16T11:36:11.859Z,42048
2016-12-16T11:37:11.847Z,39520
2016-12-16T11:38:11.835Z,33440
2016-12-16T11:39:11.822Z,29536
2016-12-16T11:40:11.810Z,31360
2016-12-16T11:41:11.794Z,35776
2016-12-16T11:42:11.787Z,35872
2016-12-16T11:43:11.774Z,31936
2016-12-16T11:44:11.798Z,31776
2016-12-16T11:45:11.783Z,32288
2016-12-16T11:46:11.747Z,31552
2016-12-16T11:47:11.726Z,29312
2016-12-16T11:48:11.714Z,28992
2016-12-16T11:49:11.697Z,28896
2016-12-16T11:50:11.684Z,28064
2016-12-16T11:51:11.679Z,27104
2016-12-16T11:52:11.660Z,25888
2016-12-16T11:53:11.649Z,26016
2016-12-16T11:54:11.643Z,26464
2016-12-16T11:55:11.631Z,27264
2016-12-16T11:56:11.612Z,26944
2016-12-16T11:57:11.606Z,26432
2016-12-16T11:58:11.586Z,26432
2016-12-16T11:59:11.574Z,29024
2016-12-16T12:00:11.569Z,30432
2016-12-16T12:01:11.550Z,29952
2016-12-16T12:02:11.537Z,29440
2016-12-16T12:03:11.530Z,31840
2016-12-16T12:04:11.516Z,34176
2016-12-16T12:05:11.504Z,32608
2016-12-16T12:06:11.498Z,28800
2016-12-16T12:07:11.479Z,24736
2016-12-16T12:08:11.472Z,19936
2016-12-16T12:09:11.454Z,18144
2016-12-16T12:10:11.450Z,16768
2016-12-16T12:11:11.435Z,16544
2016-12-16T12:12:11.423Z,16448
2016-12-16T12:13:11.414Z,15936
2016-12-16T12:14:11.402Z,16224
2016-12-16T12:15:11.394Z,17696
2016-12-16T12:16:11.380Z,20256
2016-12-16T12:17:11.370Z,24640
2016-12-16T12:18:11.362Z,28192
2016-12-16T12:19:11.349Z,32576
2016-12-16T12:20:11.334Z,35872
2016-12-16T12:21:11.324Z,39584
2016-12-16T12:22:11.312Z,41600
2016-12-16T12:23:11.304Z,40032
2016-12-16T12:24:11.292Z,34496
2016-12-16T12:25:11.281Z,30816
2016-12-16T12:26:11.268Z,28416
2016-12-16T12:27:11.260Z,27872
2016-12-16T12:28:11.249Z,27072
2016-12-16T12:29:11.235Z,25376
2016-12-16T12:30:11.225Z,23456
2016-12-16T12:31:11.217Z,23040
2016-12-16T12:32:11.207Z,25152
2016-12-16T12:33:11.194Z,30240
2016-12-16T12:34:11.184Z,32512
2016-12-16T12:35:11.170Z,31072
2016-12-16T12:36:11.165Z,29952
2016-12-16T12:37:11.147Z,28320
2016-12-16T12:38:11.137Z,26144
2016-12-16T12:39:11.125Z,25408
2016-12-16T12:40:11.114Z,25888
2016-12-16T12:41:11.103Z,26560
2016-12-16T12:42:11.093Z,26912
2016-12-16T12:43:11.085Z,25696
2016-12-16T12:44:11.071Z,24128
2016-12-16T12:45:11.059Z,23648
2016-12-16T12:46:11.051Z,23648
2016-12-16T12:47:11.039Z,22784
2016-12-16T12:48:11.029Z,23168
2016-12-16T12:49:11.068Z,23328
2016-12-16T12:50:11.005Z,23360
2016-12-16T12:51:10.997Z,25792
2016-12-16T12:52:10.988Z,26368
2016-12-16T12:53:10.976Z,26464
2016-12-16T12:54:10.966Z,27776
2016-12-16T12:55:10.956Z,26976
2016-12-16T12:56:10.944Z,25440
2016-12-16T12:57:10.935Z,24448
2016-12-16T12:58:10.926Z,24224
2016-12-16T12:59:10.916Z,21664
2016-12-16T13:00:10.905Z,19328
2016-12-16T13:01:10.892Z,19200
2016-12-16T13:02:10.880Z,19872
2016-12-16T13:03:10.879Z,19744
2016-12-16T13:04:10.860Z,21472
2016-12-16T13:05:10.853Z,23680
2016-12-16T13:06:10.843Z,25248
2016-12-16T13:07:10.831Z,25984
2016-12-16T13:08:10.823Z,24928
2016-12-16T13:09:10.810Z,23616
2016-12-16T13:10:10.798Z,25216
2016-12-16T13:11:10.785Z,25600
2016-12-16T13:12:10.779Z,24480
2016-12-16T13:13:10.767Z,23040
2016-12-16T13:14:10.760Z,22272
2016-12-16T13:15:10.750Z,24352
2016-12-16T13:16:10.733Z,23424
2016-12-16T13:17:10.722Z,20544
2016-12-16T13:18:10.709Z,18848
2016-12-16T13:19:10.699Z,20864
2016-12-16T13:20:10.698Z,22944
2016-12-16T13:21:10.678Z,21536
2016-12-16T13:22:10.667Z,20512
2016-12-16T13:23:10.656Z,19296
2016-12-16T13:24:10.654Z,17248
2016-12-16T13:25:10.664Z,17888
2016-12-16T13:26:10.624Z,19200
2016-12-16T13:27:10.614Z,19296
2016-12-16T13:28:10.601Z,19808
2016-12-16T13:29:10.596Z,19520
2016-12-16T13:30:10.586Z,18688
2016-12-16T13:31:10.572Z,17888
2016-12-16T13:32:10.560Z,17376
2016-12-16T13:33:10.550Z,17312
2016-12-16T13:34:10.544Z,17056
2016-12-16T13:35:10.529Z,17152
2016-12-16T13:36:10.519Z,16704
2016-12-16T13:37:10.506Z,16960
2016-12-16T13:38:10.500Z,17568
2016-12-16T13:39:10.484Z,18048
2016-12-16T13:40:10.477Z,17728
2016-12-16T13:41:10.463Z,16128
2016-12-16T13:42:10.456Z,14380
2016-12-16T13:43:10.450Z,13884
2016-12-16T13:44:10.435Z,12712
2016-12-16T13:45:10.427Z,13536
2016-12-16T13:46:10.415Z,14560
2016-12-16T13:47:10.407Z,16416